Time;durP1;ratioP1;P1;durP2;ratioP2;P2;SDS_P1;SDS_P2;PMS_P1;PMS_P2;Temp;Humidity;BMP_temperature;BMP_pressure;BME280_temperature;BME280_humidity;BME280_pressure;Samples;Min_cycle;Max_cycle;Signal;HPM_P1;HPM_P2
2021/12/19 00:00:52;;;;;;;22.63;14.47;;;;;;;6.19;100.00;100828.91;5054832;28;20215;-84
2021/12/19 00:03:37;;;;;;;21.63;14.43;;;;;;;5.80;100.00;100826.09;5056801;28;20197;-84
2021/12/19 00:08:50;;;;;;;23.87;14.03;;;;;;;5.69;100.00;100830.63;5058132;28;20205;-84
2021/12/19 00:11:21;;;;;;;22.40;14.03;;;;;;;5.53;100.00;100831.81;5059146;28;20201;-84
2021/12/19 00:13:51;;;;;;;22.87;14.27;;;;;;;5.69;100.00;100823.66;5045259;28;20664;-84
2021/12/19 00:16:20;;;;;;;26.40;15.17;;;;;;;5.49;100.00;100832.72;5034525;28;20204;-85
2021/12/19 00:18:50;;;;;;;24.63;14.43;;;;;;;5.68;100.00;100823.66;5052153;28;20205;-82
2021/12/19 00:21:19;;;;;;;25.30;14.47;;;;;;;5.60;100.00;100825.56;5048376;28;20205;-83
2021/12/19 00:23:50;;;;;;;26.87;15.10;;;;;;;5.56;100.00;100832.63;5049557;28;20193;-84
2021/12/19 00:26:19;;;;;;;25.90;14.77;;;;;;;5.56;100.00;100824.72;5047960;28;20224;-84
2021/12/19 00:28:49;;;;;;;23.97;14.50;;;;;;;5.62;100.00;100829.03;5062640;28;20189;-82
2021/12/19 00:31:19;;;;;;;25.80;15.67;;;;;;;5.69;100.00;100828.91;5070249;28;20695;-84
2021/12/19 00:33:47;;;;;;;25.67;15.07;;;;;;;5.87;100.00;100819.81;5063587;28;20200;-84
2021/12/19 00:36:17;;;;;;;30.07;16.43;;;;;;;5.89;100.00;100815.41;5096059;28;20207;-83
2021/12/19 00:38:46;;;;;;;29.60;17.40;;;;;;;5.93;100.00;100817.09;5100406;28;20215;-84
2021/12/19 00:41:15;;;;;;;33.47;19.37;;;;;;;5.95;100.00;100824.97;5099231;28;20194;-84
2021/12/19 00:43:47;;;;;;;32.50;19.20;;;;;;;5.99;100.00;100813.50;5097206;28;20199;-83
2021/12/19 00:46:22;;;;;;;31.47;18.20;;;;;;;5.99;100.00;100811.75;5095418;28;20219;-84
2021/12/19 00:48:55;;;;;;;31.57;18.23;;;;;;;5.97;100.00;100815.28;5095819;28;20251;-84
2021/12/19 00:51:26;;;;;;;31.77;17.33;;;;;;;6.07;100.00;100814.22;5095461;28;20207;-84
2021/12/19 00:53:57;;;;;;;31.53;17.57;;;;;;;6.07;100.00;100811.56;5090349;28;20199;-83
2021/12/19 00:56:26;;;;;;;29.77;17.50;;;;;;;6.04;100.00;100806.38;5087665;28;20270;-84
2021/12/19 00:58:56;;;;;;;27.27;16.03;;;;;;;6.00;100.00;100799.47;5091836;28;20188;-84
2021/12/19 01:01:27;;;;;;;25.17;15.10;;;;;;;5.96;100.00;100796.00;5093794;28;20294;-84
2021/12/19 01:03:56;;;;;;;23.77;15.57;;;;;;;5.93;100.00;100800.47;5090997;28;20188;-84
2021/12/19 01:06:28;;;;;;;18.43;13.10;;;;;;;5.85;100.00;100794.44;5095169;28;20226;-84
2021/12/19 01:08:59;;;;;;;19.10;11.80;;;;;;;5.81;100.00;100793.66;5085671;28;20295;-84
2021/12/19 01:11:27;;;;;;;15.23;10.80;;;;;;;5.77;100.00;100796.34;5093839;28;20191;-83
2021/12/19 01:13:56;;;;;;;15.50;11.37;;;;;;;5.69;100.00;100781.59;5094933;28;20631;-83
2021/12/19 01:16:26;;;;;;;15.73;10.77;;;;;;;5.75;100.00;100785.84;5088337;28;20196;-83
2021/12/19 01:18:55;;;;;;;13.57;9.30;;;;;;;5.74;100.00;100795.50;5066590;28;20261;-84
2021/12/19 01:21:25;;;;;;;15.30;9.70;;;;;;;5.73;100.00;100790.28;5092160;28;20191;-83
2021/12/19 01:23:53;;;;;;;12.30;8.97;;;;;;;5.60;100.00;100789.63;5093856;28;20195;-84
2021/12/19 01:26:23;;;;;;;12.23;8.23;;;;;;;5.61;100.00;100783.47;5091261;28;20223;-84
2021/12/19 01:28:52;;;;;;;9.90;8.00;;;;;;;5.59;100.00;100779.13;5088363;28;20195;-84
2021/12/19 01:31:21;;;;;;;9.93;7.33;;;;;;;5.55;100.00;100773.06;5094440;28;20203;-84
2021/12/19 01:33:51;;;;;;;7.53;6.33;;;;;;;5.47;100.00;100775.81;5094419;28;20251;-83
2021/12/19 01:36:23;;;;;;;7.23;5.70;;;;;;;5.47;100.00;100777.59;5092765;28;20188;-84
2021/12/19 01:38:52;;;;;;;7.93;5.37;;;;;;;5.50;100.00;100763.50;5082469;28;20219;-84
2021/12/19 01:41:20;;;;;;;6.40;5.23;;;;;;;5.52;100.00;100767.88;5094123;28;20188;-84
2021/12/19 01:43:48;;;;;;;6.93;5.43;;;;;;;5.54;100.00;100770.47;5094427;28;20203;-84
2021/12/19 01:46:17;;;;;;;5.20;4.17;;;;;;;5.57;100.00;100773.03;5097732;27;20212;-84
2021/12/19 01:48:47;;;;;;;5.20;4.40;;;;;;;5.64;100.00;100765.03;5091419;28;20188;-84
2021/12/19 01:51:18;;;;;;;5.80;4.30;;;;;;;5.63;100.00;100758.03;5092243;28;20195;-84
2021/12/19 01:53:46;;;;;;;4.53;3.73;;;;;;;5.54;100.00;100758.19;5092674;28;20196;-83
2021/12/19 01:56:14;;;;;;;4.87;3.40;;;;;;;5.54;100.00;100741.56;5094151;28;20203;-84
2021/12/19 01:58:45;;;;;;;4.37;3.83;;;;;;;5.32;100.00;100735.81;5092766;28;20203;-84
2021/12/19 02:01:16;;;;;;;4.93;3.53;;;;;;;5.33;100.00;100738.41;5093214;28;20278;-83
2021/12/19 02:03:44;;;;;;;4.87;3.33;;;;;;;5.38;100.00;100731.31;5029245;28;20197;-84
2021/12/19 02:06:13;;;;;;;3.60;3.20;;;;;;;5.51;100.00;100739.00;5025610;28;20252;-83
2021/12/19 02:08:44;;;;;;;4.73;3.50;;;;;;;5.50;100.00;100722.38;5023343;28;20202;-83
2021/12/19 02:11:14;;;;;;;3.93;3.53;;;;;;;5.45;100.00;100725.06;5029481;28;20208;-84
2021/12/19 02:13:46;;;;;;;5.27;3.73;;;;;;;5.36;100.00;100716.47;5024674;28;20201;-84
2021/12/19 02:16:14;;;;;;;4.40;3.67;;;;;;;5.31;100.00;100724.44;5028113;28;20202;-84
2021/12/19 02:18:42;;;;;;;4.47;3.77;;;;;;;5.36;100.00;100717.34;5026400;28;20205;-84
2021/12/19 02:21:12;;;;;;;4.93;3.90;;;;;;;5.39;100.00;100722.53;5043757;28;20241;-83
2021/12/19 02:23:40;;;;;;;4.07;3.60;;;;;;;5.47;100.00;100719.75;5092792;28;20196;-83
2021/12/19 02:26:09;;;;;;;4.50;3.67;;;;;;;5.56;100.00;100719.59;5089831;28;20202;-84
2021/12/19 02:28:37;;;;;;;4.50;3.70;;;;;;;5.55;100.00;100722.25;5093423;28;20231;-83
2021/12/19 02:31:06;;;;;;;4.13;3.20;;;;;;;5.57;100.00;100716.06;5093555;28;20199;-84
2021/12/19 02:33:39;;;;;;;6.27;3.53;;;;;;;5.62;100.00;100714.25;5093587;28;20191;-84
2021/12/19 02:36:21;;;;;;;4.43;3.53;;;;;;;5.65;100.00;100718.56;5093284;28;20242;-83
2021/12/19 02:50:25;;;;;;;4.57;3.83;;;;;;;5.71;100.00;100708.81;5078262;28;20255;-84
2021/12/19 02:52:55;;;;;;;5.27;3.57;;;;;;;5.68;100.00;100700.09;5092601;28;20191;-84
2021/12/19 02:55:24;;;;;;;4.17;3.63;;;;;;;5.55;100.00;100698.59;5090306;28;20188;-83
2021/12/19 02:57:54;;;;;;;5.93;4.30;;;;;;;5.52;100.00;100691.66;5086126;28;20287;-83
2021/12/19 03:00:27;;;;;;;6.83;4.93;;;;;;;5.38;100.00;100691.91;5087313;28;20207;-84
2021/12/19 03:02:55;;;;;;;4.90;4.20;;;;;;;5.43;100.00;100689.19;5092916;28;20278;-83
2021/12/19 03:05:24;;;;;;;6.47;4.73;;;;;;;5.31;100.00;100684.19;5091862;28;20279;-83
2021/12/19 03:07:56;;;;;;;6.10;4.73;;;;;;;5.39;100.00;100683.13;5091994;28;20211;-83
2021/12/19 03:13:21;;;;;;;7.57;5.37;;;;;;;5.30;100.00;100685.03;5049094;28;20232;-83
2021/12/19 03:18:36;;;;;;;7.57;5.23;;;;;;;5.36;100.00;100679.69;5051973;28;20235;-83
2021/12/19 03:21:05;;;;;;;9.93;6.30;;;;;;;5.21;100.00;100678.22;5046416;28;20197;-84
2021/12/19 03:23:35;;;;;;;7.47;6.13;;;;;;;5.17;100.00;100672.13;5042855;28;20196;-84
2021/12/19 03:26:05;;;;;;;8.23;5.80;;;;;;;5.33;100.00;100675.38;5047796;28;20208;-83
2021/12/19 03:28:33;;;;;;;7.30;5.80;;;;;;;5.23;100.00;100663.28;5073007;28;20212;-84
2021/12/19 03:31:04;;;;;;;7.40;5.97;;;;;;;5.17;100.00;100663.38;5097275;28;20194;-84
2021/12/19 03:33:35;;;;;;;8.60;6.53;;;;;;;4.94;100.00;100658.53;5097044;28;20195;-84
2021/12/19 03:36:06;;;;;;;8.03;6.50;;;;;;;4.98;100.00;100647.09;5093034;28;20192;-83
2021/12/19 03:38:40;;;;;;;9.67;7.00;;;;;;;5.01;100.00;100647.03;5091949;28;20269;-84
2021/12/19 03:41:17;;;;;;;9.03;7.00;;;;;;;5.22;100.00;100639.69;5094518;28;20188;-83
2021/12/19 03:43:45;;;;;;;10.10;7.63;;;;;;;4.95;100.00;100634.03;5090138;28;20229;-84
2021/12/19 03:46:15;;;;;;;10.20;7.13;;;;;;;5.16;100.00;100638.03;5100048;28;20215;-83
2021/12/19 03:48:43;;;;;;;9.47;6.70;;;;;;;5.09;100.00;100631.13;5116267;28;20207;-82
2021/12/19 03:51:12;;;;;;;9.73;7.00;;;;;;;5.03;100.00;100628.63;5116082;28;20647;-83
2021/12/19 03:53:41;;;;;;;10.40;7.20;;;;;;;5.10;100.00;100638.97;5092558;28;20245;-83
2021/12/19 03:56:11;;;;;;;9.33;7.10;;;;;;;5.26;100.00;100636.09;5089258;28;20200;-83
2021/12/19 03:58:39;;;;;;;8.83;6.30;;;;;;;5.24;100.00;100623.00;5090402;28;20196;-83
2021/12/19 04:01:10;;;;;;;11.23;6.60;;;;;;;5.24;100.00;100624.75;5096333;28;20192;-83
2021/12/19 04:03:40;;;;;;;10.67;7.17;;;;;;;5.25;100.00;100618.59;5098176;28;20176;-83
2021/12/19 04:06:09;;;;;;;10.90;6.50;;;;;;;5.29;100.00;100620.25;5100026;28;20647;-83
2021/12/19 04:08:37;;;;;;;10.60;6.97;;;;;;;5.20;100.00;100613.41;5098339;28;20273;-83
2021/12/19 04:11:06;;;;;;;8.33;6.10;;;;;;;5.42;100.00;100617.38;5087023;28;20245;-83
2021/12/19 04:13:36;;;;;;;8.83;6.30;;;;;;;5.42;100.00;100620.00;5096165;28;20188;-84
2021/12/19 04:16:06;;;;;;;10.30;6.70;;;;;;;5.50;100.00;100611.09;5096121;28;20204;-84
2021/12/19 04:18:34;;;;;;;10.03;6.83;;;;;;;5.56;100.00;100606.59;5061308;28;20274;-83
2021/12/19 04:21:03;;;;;;;9.80;6.43;;;;;;;5.46;100.00;100602.41;5094311;28;20200;-83
2021/12/19 04:23:33;;;;;;;9.60;7.03;;;;;;;5.53;100.00;100597.91;5087602;28;20195;-83
2021/12/19 04:26:01;;;;;;;12.00;6.93;;;;;;;5.50;100.00;100590.06;5095784;28;20215;-84
2021/12/19 04:28:29;;;;;;;10.40;6.60;;;;;;;5.54;100.00;100581.25;5095636;28;20222;-84
2021/12/19 04:31:00;;;;;;;10.73;7.47;;;;;;;5.25;100.00;100579.19;5095319;28;20198;-83
2021/12/19 04:33:29;;;;;;;11.10;6.97;;;;;;;5.29;100.00;100572.97;5093192;28;20207;-84
2021/12/19 04:36:01;;;;;;;11.27;6.90;;;;;;;5.21;100.00;100570.53;5095530;28;20196;-84
2021/12/19 05:01:33;;;;;;;12.07;7.50;;;;;;;5.52;100.00;100562.03;5091727;28;20200;-83
2021/12/19 05:04:10;;;;;;;11.57;7.40;;;;;;;5.44;100.00;100567.44;5090905;28;20199;-83
2021/12/19 05:14:02;;;;;;;13.97;7.53;;;;;;;5.08;100.00;100551.50;5094208;28;20279;-83
2021/12/19 05:15:16;;;;;;;14.57;8.23;;;;;;;5.36;100.00;100551.81;5095052;28;20199;-83
2021/12/19 05:17:47;;;;;;;11.70;7.73;;;;;;;5.24;100.00;100551.19;5092125;28;20673;-84
2021/12/19 05:20:21;;;;;;;11.40;7.70;;;;;;;5.21;100.00;100552.13;5086516;28;20218;-83
2021/12/19 05:22:53;;;;;;;12.73;7.63;;;;;;;5.24;100.00;100556.47;5091545;28;20237;-83
2021/12/19 05:25:21;;;;;;;12.37;7.90;;;;;;;5.40;100.00;100560.50;5094821;28;20195;-83
2021/12/19 05:27:51;;;;;;;11.13;7.63;;;;;;;5.46;100.00;100560.38;5092664;28;20191;-84
2021/12/19 05:30:20;;;;;;;12.67;7.97;;;;;;;5.60;100.00;100562.72;5089675;28;20200;-84
2021/12/19 05:32:51;;;;;;;12.43;7.47;;;;;;;5.63;100.00;100566.16;5094710;28;20192;-83
2021/12/19 05:35:30;;;;;;;12.77;7.37;;;;;;;5.67;100.00;100565.16;5090220;28;20204;-84
2021/12/19 05:46:18;;;;;;;11.23;7.63;;;;;;;5.62;100.00;100560.94;5094220;28;20200;-84
2021/12/19 05:48:48;;;;;;;11.67;7.40;;;;;;;5.66;100.00;100557.31;5093379;28;20234;-83
2021/12/19 05:51:18;;;;;;;12.20;7.93;;;;;;;5.68;100.00;100560.78;5029155;28;20220;-84
2021/12/19 05:53:46;;;;;;;11.60;7.17;;;;;;;5.72;100.00;100552.81;5028250;28;20194;-83
2021/12/19 05:56:15;;;;;;;13.10;8.33;;;;;;;5.53;100.00;100548.84;5031802;28;20194;-84
2021/12/19 05:58:43;;;;;;;11.23;6.80;;;;;;;5.61;100.00;100540.81;5027415;28;20209;-83
2021/12/19 06:01:11;;;;;;;11.53;7.97;;;;;;;5.60;100.00;100539.94;5029581;28;20193;-84
2021/12/19 06:03:40;;;;;;;12.40;8.40;;;;;;;5.55;100.00;100541.78;5031719;28;20190;-84
2021/12/19 06:06:08;;;;;;;14.33;8.43;;;;;;;5.42;100.00;100540.31;5026669;28;20281;-84
2021/12/19 06:08:38;;;;;;;12.40;7.67;;;;;;;5.46;100.00;100529.72;5038963;28;20217;-84
2021/12/19 06:11:06;;;;;;;12.13;7.60;;;;;;;5.52;100.00;100533.13;5094551;28;20203;-83
2021/12/19 06:13:40;;;;;;;13.97;8.20;;;;;;;5.62;100.00;100526.75;5090227;28;20270;-83
2021/12/19 06:16:10;;;;;;;11.83;7.97;;;;;;;5.41;100.00;100528.09;5093933;28;20192;-84
2021/12/19 06:18:39;;;;;;;15.27;9.07;;;;;;;5.40;100.00;100524.59;5088457;28;20286;-83
2021/12/19 06:21:07;;;;;;;14.30;8.60;;;;;;;5.39;100.00;100527.22;5093945;28;20191;-83
2021/12/19 06:23:36;;;;;;;14.23;8.60;;;;;;;5.36;100.00;100524.69;5087949;28;20195;-83
2021/12/19 06:26:10;;;;;;;15.50;9.07;;;;;;;5.38;100.00;100515.00;5093301;28;20206;-83
2021/12/19 06:28:39;;;;;;;18.97;9.57;;;;;;;5.44;100.00;100505.22;5098217;28;20199;-83
2021/12/19 06:31:08;;;;;;;17.70;9.70;;;;;;;5.50;100.00;100508.59;5096745;28;20187;-83
2021/12/19 06:33:37;;;;;;;16.00;10.30;;;;;;;5.33;100.00;100511.63;5093475;28;20198;-83
2021/12/19 06:36:09;;;;;;;15.50;8.77;;;;;;;5.51;100.00;100500.72;5090821;28;20367;-84
2021/12/19 06:38:37;;;;;;;18.33;9.70;;;;;;;5.47;100.00;100499.91;5094298;28;20310;-84
2021/12/19 06:41:07;;;;;;;17.33;9.50;;;;;;;5.49;100.00;100496.38;5084775;28;20195;-83
2021/12/19 06:43:36;;;;;;;19.97;10.10;;;;;;;5.42;100.00;100495.66;5096526;28;20209;-83
2021/12/19 06:46:04;;;;;;;18.47;11.10;;;;;;;5.40;100.00;100497.44;5093336;28;20203;-84
2021/12/19 06:48:32;;;;;;;18.90;10.90;;;;;;;5.58;100.00;100497.03;5094317;28;20655;-83
2021/12/19 06:51:00;;;;;;;20.03;10.97;;;;;;;5.56;100.00;100504.09;5093351;28;20220;-83
2021/12/19 06:53:29;;;;;;;16.77;9.83;;;;;;;5.71;100.00;100513.41;5094136;28;20227;-83
2021/12/19 06:55:59;;;;;;;18.47;10.73;;;;;;;5.74;100.00;100503.69;5095247;28;20200;-83
2021/12/19 06:58:29;;;;;;;20.43;11.60;;;;;;;5.73;100.00;100499.34;5103151;27;20203;-83
2021/12/19 07:00:57;;;;;;;17.57;9.93;;;;;;;5.75;100.00;100497.53;5088747;28;20196;-84
2021/12/19 07:03:25;;;;;;;19.10;10.40;;;;;;;5.80;100.00;100493.94;5094568;28;20639;-84
2021/12/19 07:05:54;;;;;;;20.30;10.77;;;;;;;5.84;100.00;100492.97;5093100;28;20188;-83
2021/12/19 07:08:22;;;;;;;16.97;10.27;;;;;;;5.80;100.00;100488.69;5093293;28;20192;-84
2021/12/19 07:10:51;;;;;;;17.57;9.83;;;;;;;5.83;100.00;100499.13;5093470;28;20696;-83
2021/12/19 07:13:21;;;;;;;18.37;10.60;;;;;;;5.91;100.00;100500.72;5093018;28;20195;-83
2021/12/19 07:15:52;;;;;;;16.03;9.70;;;;;;;5.99;100.00;100500.53;5092871;28;20318;-83
2021/12/19 07:18:21;;;;;;;19.80;10.57;;;;;;;5.74;100.00;100502.81;5092996;28;20285;-83
2021/12/19 07:20:50;;;;;;;18.67;11.07;;;;;;;5.85;100.00;100497.31;5092822;28;20257;-84
2021/12/19 07:23:23;;;;;;;17.33;10.20;;;;;;;5.90;100.00;100492.84;5088313;28;20818;-84
2021/12/19 07:25:52;;;;;;;17.40;10.13;;;;;;;5.87;100.00;100477.97;5092903;28;20296;-83
2021/12/19 07:28:20;;;;;;;18.47;10.27;;;;;;;5.91;100.00;100477.06;5091711;28;20198;-84
2021/12/19 07:30:49;;;;;;;20.90;11.03;;;;;;;5.90;100.00;100483.22;5087804;28;20310;-83
2021/12/19 07:33:21;;;;;;;18.53;10.57;;;;;;;5.90;100.00;100479.69;5091264;28;20226;-84
2021/12/19 07:35:50;;;;;;;18.53;10.60;;;;;;;5.88;100.00;100484.97;5092614;28;20225;-84
2021/12/19 07:38:28;;;;;;;18.87;10.87;;;;;;;5.74;100.00;100481.78;5091546;28;20223;-83
2021/12/19 07:40:58;;;;;;;19.90;11.37;;;;;;;5.83;100.00;100475.47;5091826;28;20202;-84
2021/12/19 07:43:27;;;;;;;21.63;12.03;;;;;;;5.66;100.00;100476.72;5095687;28;20203;-84
2021/12/19 07:45:57;;;;;;;21.47;12.63;;;;;;;5.73;100.00;100466.94;5095460;28;20203;-84
2021/12/19 07:48:28;;;;;;;18.80;12.03;;;;;;;5.97;100.00;100461.09;5092581;28;20227;-84
2021/12/19 07:50:56;;;;;;;19.97;12.00;;;;;;;5.97;100.00;100458.47;5098769;27;20265;-84
2021/12/19 07:53:25;;;;;;;19.67;11.43;;;;;;;6.03;100.00;100454.84;5086779;28;20204;-83
2021/12/19 07:55:53;;;;;;;22.30;14.10;;;;;;;5.68;100.00;100439.88;5094220;28;20204;-84
2021/12/19 07:58:22;;;;;;;25.77;14.70;;;;;;;5.69;100.00;100439.84;5088622;28;20203;-84
2021/12/19 08:00:50;;;;;;;24.97;13.20;;;;;;;5.80;100.00;100444.84;5090403;28;20199;-83
2021/12/19 08:03:18;;;;;;;26.23;14.63;;;;;;;5.85;100.00;100452.63;5093819;28;20191;-83
2021/12/19 08:05:49;;;;;;;24.90;14.30;;;;;;;5.82;100.00;100442.19;5089206;28;20227;-84
2021/12/19 08:08:22;;;;;;;23.93;14.07;;;;;;;5.88;100.00;100435.00;5092573;28;20196;-83
2021/12/19 08:13:37;;;;;;;24.63;13.57;;;;;;;6.16;100.00;100434.34;5094777;28;20203;-83
2021/12/19 08:16:06;;;;;;;24.77;14.53;;;;;;;6.23;100.00;100434.16;5095678;28;20198;-83
2021/12/19 08:18:35;;;;;;;24.17;13.60;;;;;;;6.25;100.00;100436.75;5096167;28;20222;-83
2021/12/19 08:21:04;;;;;;;23.83;14.03;;;;;;;6.11;100.00;100431.84;5097021;28;20200;-84
2021/12/19 08:23:35;;;;;;;22.60;13.60;;;;;;;6.15;100.00;100432.63;5092921;28;20196;-83
2021/12/19 08:26:04;;;;;;;25.97;15.07;;;;;;;6.15;100.00;100427.38;5097573;28;20200;-83
2021/12/19 08:28:33;;;;;;;21.77;13.43;;;;;;;6.00;100.00;100429.50;5096321;28;20198;-83
2021/12/19 08:31:01;;;;;;;23.20;13.97;;;;;;;6.01;100.00;100425.09;5098781;28;20222;-83
2021/12/19 08:33:30;;;;;;;22.80;13.03;;;;;;;6.25;100.00;100423.59;5096303;28;20184;-84
2021/12/19 08:35:59;;;;;;;25.23;14.10;;;;;;;6.35;100.00;100414.56;5096027;28;20206;-83
2021/12/19 08:38:29;;;;;;;26.27;14.07;;;;;;;6.37;100.00;100411.88;5094520;28;20235;-83
2021/12/19 08:40:58;;;;;;;23.43;14.47;;;;;;;6.41;100.00;100414.41;5098753;28;20199;-83
2021/12/19 08:43:29;;;;;;;23.13;13.67;;;;;;;6.44;100.00;100410.81;5096263;28;20202;-83
2021/12/19 08:45:58;;;;;;;22.80;14.57;;;;;;;6.41;100.00;100406.50;5092276;28;20199;-84
2021/12/19 08:48:27;;;;;;;26.13;16.23;;;;;;;6.26;100.00;100409.53;5098348;28;20283;-83
2021/12/19 08:50:55;;;;;;;22.60;14.57;;;;;;;6.34;100.00;100407.56;5099850;27;20223;-83
2021/12/19 08:53:24;;;;;;;26.30;16.80;;;;;;;6.29;100.00;100409.47;5095441;28;20203;-83
2021/12/19 08:56:01;;;;;;;30.33;19.03;;;;;;;6.24;100.00;100406.94;5096189;28;20214;-83
2021/12/19 08:58:29;;;;;;;20.33;12.80;;;;;;;6.48;100.00;100407.22;5093826;28;20835;-83
2021/12/19 09:01:01;;;;;;;21.40;12.97;;;;;;;6.52;100.00;100393.91;5095642;28;20324;-84
2021/12/19 09:03:31;;;;;;;21.33;13.07;;;;;;;6.72;100.00;100395.13;5097430;27;20282;-83
2021/12/19 09:06:02;;;;;;;21.97;13.20;;;;;;;6.73;100.00;100395.06;5096142;28;20195;-83
2021/12/19 09:08:31;;;;;;;20.63;13.10;;;;;;;6.71;100.00;100398.66;5097292;28;20203;-83
2021/12/19 09:11:01;;;;;;;20.27;12.80;;;;;;;6.68;100.00;100398.75;5096326;28;20215;-83
2021/12/19 09:13:29;;;;;;;20.77;13.03;;;;;;;6.69;100.00;100384.69;5100050;28;20188;-83
2021/12/19 09:15:57;;;;;;;19.07;11.77;;;;;;;6.73;100.00;100384.53;5096278;28;20203;-83
2021/12/19 09:18:26;;;;;;;20.03;12.40;;;;;;;6.81;100.00;100384.34;5096143;28;20188;-83
2021/12/19 09:20:54;;;;;;;19.40;12.67;;;;;;;6.81;100.00;100381.69;5095437;28;20191;-83
2021/12/19 09:23:23;;;;;;;21.07;11.87;;;;;;;6.80;100.00;100378.19;5094736;28;20194;-82
2021/12/19 09:25:53;;;;;;;19.57;12.50;;;;;;;6.85;100.00;100378.06;5099038;28;20198;-83
2021/12/19 09:28:28;;;;;;;19.83;12.97;;;;;;;6.97;100.00;100384.75;5102398;27;20287;-83
2021/12/19 09:30:56;;;;;;;17.70;13.50;;;;;;;6.63;100.00;100375.19;5093227;28;20226;-83
2021/12/19 09:33:25;;;;;;;18.00;12.13;;;;;;;6.87;100.00;100377.13;5100855;28;20188;-83
2021/12/19 09:35:53;;;;;;;18.83;12.37;;;;;;;6.97;100.00;100385.63;5096172;28;20198;-83
2021/12/19 09:38:22;;;;;;;18.40;11.27;;;;;;;7.04;100.00;100379.25;5094227;28;20231;-83
2021/12/19 09:40:58;;;;;;;18.77;12.33;;;;;;;6.96;100.00;100368.09;5095727;28;20195;-83
2021/12/19 09:43:42;;;;;;;19.20;12.20;;;;;;;7.13;100.00;100371.06;5095640;28;20203;-83
2021/12/19 09:46:14;;;;;;;17.77;12.03;;;;;;;7.14;100.00;100361.38;5097603;27;20230;-84
2021/12/19 09:48:44;;;;;;;18.50;11.87;;;;;;;7.11;100.00;100357.06;5096433;28;20204;-84
2021/12/19 09:51:15;;;;;;;19.40;12.07;;;;;;;7.14;100.00;100361.38;5096994;28;20219;-83
2021/12/19 09:53:44;;;;;;;19.50;12.23;;;;;;;7.10;100.00;100358.00;5096581;27;20207;-84
2021/12/19 09:56:13;;;;;;;17.67;11.17;;;;;;;6.97;100.00;100356.66;5091766;28;20637;-83
2021/12/19 09:58:43;;;;;;;16.43;10.70;;;;;;;7.06;100.00;100353.75;5095706;28;20256;-84
2021/12/19 10:01:13;;;;;;;15.77;10.43;;;;;;;7.14;100.00;100350.84;5096636;28;20191;-82
2021/12/19 10:03:42;;;;;;;18.37;11.90;;;;;;;7.11;100.00;100335.13;5091091;28;20203;-83
2021/12/19 10:06:16;;;;;;;16.37;11.40;;;;;;;7.11;100.00;100343.03;5080666;28;20196;-83
2021/12/19 10:08:48;;;;;;;19.03;11.73;;;;;;;7.08;100.00;100329.97;5093699;28;20198;-83
2021/12/19 10:11:31;;;;;;;17.63;11.43;;;;;;;7.24;100.00;100325.06;5092684;28;20221;-82
2021/12/19 10:14:01;;;;;;;19.67;12.13;;;;;;;7.16;100.00;100314.78;5093409;28;20199;-83
2021/12/19 10:16:31;;;;;;;17.27;11.53;;;;;;;7.22;100.00;100317.22;5089352;28;20515;-83
2021/12/19 10:19:02;;;;;;;16.63;11.67;;;;;;;7.21;100.00;100318.13;5090084;28;20212;-83
2021/12/19 10:21:36;;;;;;;17.93;12.00;;;;;;;7.12;100.00;100308.75;5085728;28;20646;-83
2021/12/19 10:24:06;;;;;;;17.73;11.07;;;;;;;7.09;100.00;100303.56;5091264;28;20211;-83
2021/12/19 10:26:42;;;;;;;15.27;10.10;;;;;;;7.16;100.00;100296.34;5092712;28;20203;-83
2021/12/19 10:29:12;;;;;;;18.23;11.00;;;;;;;7.18;100.00;100303.28;5076775;28;20207;-83
2021/12/19 10:31:40;;;;;;;18.73;11.80;;;;;;;7.00;100.00;100297.72;5090955;28;20243;-83
2021/12/19 10:34:19;;;;;;;14.23;9.63;;;;;;;7.12;100.00;100299.97;5092639;28;20207;-83
2021/12/19 10:36:47;;;;;;;16.03;10.17;;;;;;;7.26;100.00;100287.25;5086961;28;20210;-83
2021/12/19 10:39:24;;;;;;;16.70;10.03;;;;;;;7.21;100.00;100280.38;5092581;28;20199;-83
2021/12/19 10:42:00;;;;;;;15.63;10.77;;;;;;;7.16;100.00;100273.50;5092991;28;20203;-82
2021/12/19 10:47:25;;;;;;;14.07;9.37;;;;;;;7.36;100.00;100277.25;5092711;28;20204;-83
2021/12/19 10:49:54;;;;;;;13.13;9.60;;;;;;;7.23;100.00;100274.16;5089293;28;20195;-83
2021/12/19 10:52:36;;;;;;;13.87;9.20;;;;;;;7.32;100.00;100258.03;5091862;28;20219;-83
2021/12/19 10:55:08;;;;;;;13.40;8.37;;;;;;;7.29;100.00;100263.41;5095887;27;20244;-83
2021/12/19 10:57:40;;;;;;;12.93;8.30;;;;;;;7.32;100.00;100249.25;5094025;28;20195;-83
2021/12/19 11:00:23;;;;;;;13.00;9.00;;;;;;;7.40;100.00;100257.78;5093619;28;20356;-83
2021/12/19 11:02:52;;;;;;;12.10;8.27;;;;;;;7.56;100.00;100244.97;5087882;28;20206;-83
2021/12/19 11:05:37;;;;;;;11.87;8.17;;;;;;;7.63;100.00;100242.06;5092017;28;20195;-83
2021/12/19 11:08:08;;;;;;;11.20;8.10;;;;;;;7.70;100.00;100243.56;5090711;28;20203;-83
2021/12/19 11:10:38;;;;;;;12.07;8.33;;;;;;;7.67;100.00;100238.41;5094426;28;20298;-82
2021/12/19 11:13:10;;;;;;;10.70;7.50;;;;;;;7.77;100.00;100231.03;5092350;28;20211;-83
2021/12/19 11:15:42;;;;;;;11.90;7.93;;;;;;;7.72;100.00;100223.28;5093101;28;20184;-83
2021/12/19 11:18:13;;;;;;;13.30;8.63;;;;;;;7.73;100.00;100219.75;5090615;28;20199;-82
2021/12/19 11:20:43;;;;;;;12.70;8.40;;;;;;;7.70;100.00;100205.78;5046401;28;20201;-83
2021/12/19 11:23:11;;;;;;;11.50;7.90;;;;;;;7.77;100.00;100203.78;5047792;28;20247;-83
2021/12/19 11:25:42;;;;;;;10.00;6.97;;;;;;;7.60;100.00;100199.09;5040472;28;20251;-83
2021/12/19 11:28:12;;;;;;;12.67;7.53;;;;;;;7.43;100.00;100197.94;5045280;28;20201;-82
2021/12/19 11:30:42;;;;;;;12.13;7.83;;;;;;;7.43;100.00;100197.06;5047907;28;20197;-83
2021/12/19 11:33:25;;;;;;;10.67;7.30;;;;;;;7.48;100.00;100192.50;5042862;28;20227;-83
2021/12/19 11:35:57;;;;;;;11.90;7.83;;;;;;;7.52;100.00;100183.56;5047889;28;20280;-82
2021/12/19 11:38:26;;;;;;;10.87;7.57;;;;;;;7.30;100.00;100183.44;5051055;28;20225;-82
2021/12/19 11:40:56;;;;;;;12.40;8.00;;;;;;;7.55;100.00;100182.59;5045791;28;20221;-83
2021/12/19 11:43:37;;;;;;;13.23;8.30;;;;;;;7.56;100.00;100182.56;5048825;28;20196;-83
2021/12/19 11:46:14;;;;;;;11.33;7.87;;;;;;;7.65;100.00;100181.38;5080762;28;20210;-83
2021/12/19 11:48:42;;;;;;;12.67;8.73;;;;;;;7.75;100.00;100178.34;5097506;28;20184;-83
2021/12/19 11:51:18;;;;;;;11.33;8.03;;;;;;;7.70;100.00;100172.34;5096646;28;20200;-83
2021/12/19 11:53:47;;;;;;;12.57;8.60;;;;;;;7.66;100.00;100172.53;5095641;28;20219;-83
2021/12/19 11:56:18;;;;;;;12.47;8.37;;;;;;;7.88;100.00;100169.97;5094462;28;20225;-83
2021/12/19 11:58:49;;;;;;;13.43;8.20;;;;;;;7.85;100.00;100165.69;5093432;28;20265;-82
2021/12/19 12:01:25;;;;;;;12.77;8.30;;;;;;;7.75;100.00;100166.94;5096184;28;20250;-83
2021/12/19 12:03:57;;;;;;;13.33;8.63;;;;;;;7.63;100.00;100159.47;5104854;28;20207;-82
2021/12/19 12:06:42;;;;;;;13.70;8.50;;;;;;;7.62;100.00;100158.59;5101873;28;20188;-83
2021/12/19 12:09:22;;;;;;;15.97;9.27;;;;;;;7.51;100.00;100155.47;5103993;28;20220;-83
2021/12/19 12:12:23;;;;;;;14.17;8.97;;;;;;;7.50;100.00;100150.25;5097179;28;20195;-83
2021/12/19 12:14:59;;;;;;;16.37;9.83;;;;;;;7.44;100.00;100154.00;5075649;28;20195;-83
2021/12/19 12:17:39;;;;;;;15.87;9.93;;;;;;;7.50;100.00;100147.63;5097172;28;20275;-83
2021/12/19 12:20:32;;;;;;;18.07;10.53;;;;;;;7.50;100.00;100142.34;5093660;28;20200;-83
2021/12/19 12:23:08;;;;;;;16.13;9.87;;;;;;;7.49;100.00;100127.47;5093344;28;20690;-82
2021/12/19 12:25:42;;;;;;;15.53;9.83;;;;;;;7.49;100.00;100119.53;5097263;28;20277;-83
2021/12/19 12:28:16;;;;;;;16.20;10.13;;;;;;;7.45;100.00;100124.09;5091753;28;20252;-83
2021/12/19 12:30:48;;;;;;;14.60;9.30;;;;;;;7.62;100.00;100110.25;5096020;28;20196;-83
2021/12/19 12:33:20;;;;;;;14.37;8.80;;;;;;;7.73;100.00;100103.72;5096301;28;20226;-83